createdAt,value
2018-08-03T00:01:29.852Z,25.44
2018-08-03T00:03:58.764Z,25.37
2018-08-03T00:06:27.889Z,25.39
2018-08-03T00:09:01.757Z,25.39
2018-08-03T00:11:30.626Z,25.38
2018-08-03T00:13:59.508Z,25.28
2018-08-03T00:19:28.353Z,25.18
2018-08-03T00:21:57.233Z,25.24
2018-08-03T00:24:27.266Z,25.20
2018-08-03T00:26:56.409Z,25.10
2018-08-03T00:29:25.292Z,25.08
2018-08-03T00:31:54.247Z,25.01
2018-08-03T00:34:23.093Z,24.99
2018-08-03T00:36:51.998Z,25.01
2018-08-03T00:39:33.507Z,25.00
2018-08-03T00:42:02.384Z,24.95
2018-08-03T00:44:31.286Z,24.87
2018-08-03T00:47:00.152Z,24.88
2018-08-03T00:49:29.023Z,24.89
2018-08-03T00:51:59.942Z,24.76
2018-08-03T00:54:28.778Z,24.70
2018-08-03T00:56:57.836Z,24.74
2018-08-03T00:59:26.722Z,24.75
2018-08-03T01:02:01.073Z,24.71
2018-08-03T01:04:29.992Z,24.66
2018-08-03T01:06:58.917Z,24.65
2018-08-03T01:09:27.802Z,24.51
2018-08-03T01:11:56.682Z,24.33
2018-08-03T01:14:25.829Z,24.46
2018-08-03T01:17:18.696Z,24.56
2018-08-03T01:19:47.569Z,24.38
2018-08-03T01:22:16.433Z,24.26
2018-08-03T01:24:49.084Z,24.31
2018-08-03T01:27:17.942Z,24.34
2018-08-03T01:29:51.145Z,24.31
2018-08-03T01:32:20.017Z,24.22
2018-08-03T01:34:48.887Z,24.08
2018-08-03T01:40:13.356Z,24.18
2018-08-03T01:42:45.997Z,24.27
2018-08-03T01:45:15.342Z,24.08
2018-08-03T01:47:44.200Z,24.04
2018-08-03T01:50:13.064Z,24.06
2018-08-03T01:52:41.944Z,24.04
2018-08-03T01:55:10.795Z,23.98
2018-08-03T01:57:39.687Z,23.99
2018-08-03T02:00:08.584Z,23.94
2018-08-03T02:02:37.437Z,23.97
2018-08-03T02:05:06.311Z,23.95
2018-08-03T02:07:35.182Z,24.01
2018-08-03T02:10:22.635Z,23.95
2018-08-03T02:12:51.579Z,23.87
2018-08-03T02:15:20.430Z,23.83
2018-08-03T02:17:52.741Z,23.84
2018-08-03T02:20:21.612Z,23.81
2018-08-03T02:22:50.510Z,23.80
2018-08-03T02:25:23.506Z,23.78
2018-08-03T02:27:52.356Z,23.74
2018-08-03T02:30:21.249Z,23.68
2018-08-03T02:32:50.168Z,23.68
2018-08-03T02:35:19.044Z,23.66
2018-08-03T02:37:47.895Z,23.67
2018-08-03T02:40:16.783Z,23.62
2018-08-03T02:42:45.652Z,23.62
2018-08-03T02:45:14.513Z,23.62
2018-08-03T02:47:43.390Z,23.51
2018-08-03T02:50:29.184Z,23.56
2018-08-03T02:56:10.064Z,23.55
2018-08-03T02:58:38.984Z,23.51
2018-08-03T03:01:08.228Z,23.41
2018-08-03T03:03:37.145Z,23.43
2018-08-03T03:06:06.232Z,23.41
2018-08-03T03:08:38.524Z,23.39
2018-08-03T03:11:07.648Z,23.32
2018-08-03T03:13:36.524Z,23.28
2018-08-03T03:16:13.022Z,23.36
2018-08-03T03:18:41.992Z,23.17
2018-08-03T03:24:09.582Z,23.10
2018-08-03T03:26:57.081Z,23.12
2018-08-03T03:29:34.322Z,23.12
2018-08-03T03:32:03.257Z,23.09
2018-08-03T03:34:32.160Z,23.19
2018-08-03T03:37:04.657Z,23.19
2018-08-03T03:39:38.874Z,23.21
2018-08-03T03:42:12.658Z,23.12
2018-08-03T03:44:46.771Z,23.06
2018-08-03T03:47:16.986Z,23.09
2018-08-03T03:49:51.818Z,23.04
2018-08-03T03:52:21.742Z,23.05
2018-08-03T03:54:51.278Z,23.01
2018-08-03T03:57:22.190Z,22.95
2018-08-03T04:00:07.853Z,22.95
2018-08-03T04:02:38.517Z,22.89
2018-08-03T04:05:08.799Z,22.81
2018-08-03T04:07:42.062Z,22.82
2018-08-03T04:10:15.804Z,22.77
2018-08-03T04:13:03.009Z,22.73
2018-08-03T04:15:48.696Z,22.81
2018-08-03T04:18:31.550Z,22.89
2018-08-03T04:21:02.487Z,22.92
2018-08-03T04:23:36.951Z,22.93
2018-08-03T04:26:19.383Z,22.87
2018-08-03T04:28:48.297Z,22.85
2018-08-03T04:31:17.216Z,22.82
2018-08-03T04:33:47.412Z,22.84
2018-08-03T04:36:23.278Z,22.81
2018-08-03T04:38:54.281Z,22.79
2018-08-03T04:41:23.104Z,22.86
2018-08-03T04:43:51.969Z,22.91
2018-08-03T04:46:20.845Z,22.92
2018-08-03T04:48:59.728Z,22.90
2018-08-03T04:51:28.720Z,22.80
2018-08-03T04:54:16.505Z,22.70
2018-08-03T04:56:51.700Z,22.91
2018-08-03T05:00:12.220Z,22.93
2018-08-03T05:02:52.173Z,23.01
2018-08-03T05:05:23.104Z,22.99
2018-08-03T05:07:55.461Z,23.02
2018-08-03T05:10:24.441Z,23.00
2018-08-03T05:12:53.338Z,23.06
2018-08-03T05:15:22.242Z,23.09
2018-08-03T05:17:56.625Z,23.10
2018-08-03T05:20:25.485Z,23.06
2018-08-03T05:22:54.495Z,23.05
2018-08-03T05:25:23.426Z,22.96
2018-08-03T05:27:52.270Z,23.13
2018-08-03T05:30:21.212Z,23.22
2018-08-03T05:32:50.091Z,23.18
2018-08-03T05:35:18.980Z,23.21
2018-08-03T05:37:47.833Z,23.29
2018-08-03T05:40:17.806Z,23.38
2018-08-03T05:42:47.703Z,23.34
2018-08-03T05:45:20.564Z,23.40
2018-08-03T05:47:49.548Z,23.35
2018-08-03T05:50:25.329Z,23.23
2018-08-03T05:52:54.301Z,23.31
2018-08-03T05:55:33.126Z,23.26
2018-08-03T05:58:06.448Z,23.19
2018-08-03T06:00:35.294Z,23.16
2018-08-03T06:03:18.309Z,23.14
2018-08-03T06:05:57.568Z,23.23
2018-08-03T06:08:26.941Z,23.38
2018-08-03T06:10:55.790Z,23.29
2018-08-03T06:13:30.905Z,23.33
2018-08-03T06:15:59.776Z,23.19
2018-08-03T06:18:28.996Z,23.34
2018-08-03T06:21:18.042Z,23.49
2018-08-03T06:23:47.612Z,23.48
2018-08-03T06:26:26.377Z,23.51
2018-08-03T06:31:49.550Z,23.75
2018-08-03T06:34:18.485Z,23.63
2018-08-03T06:36:53.078Z,23.72
2018-08-03T06:39:21.945Z,23.77
2018-08-03T06:41:51.903Z,23.92
2018-08-03T06:44:20.786Z,24.01
2018-08-03T06:46:51.724Z,23.99
2018-08-03T06:49:28.322Z,24.08
2018-08-03T06:51:57.280Z,24.17
2018-08-03T06:54:29.446Z,24.23
2018-08-03T06:56:58.382Z,24.31
2018-08-03T06:59:27.246Z,24.42
2018-08-03T07:01:57.720Z,24.51
2018-08-03T07:04:32.366Z,24.64
2018-08-03T07:07:07.542Z,24.64
2018-08-03T07:09:55.439Z,24.73
2018-08-03T07:12:30.236Z,24.76
2018-08-03T07:15:03.215Z,24.80
2018-08-03T07:17:37.185Z,24.89
2018-08-03T07:20:20.832Z,24.98
2018-08-03T07:22:49.489Z,24.96
2018-08-03T07:25:34.458Z,24.96
2018-08-03T07:28:07.656Z,25.04
2018-08-03T07:30:44.207Z,25.12
2018-08-03T07:33:29.592Z,25.16
2018-08-03T07:35:58.715Z,25.16
2018-08-03T07:38:33.550Z,25.25
2018-08-03T07:41:03.530Z,25.31
2018-08-03T07:43:39.420Z,25.39
2018-08-03T07:46:09.958Z,25.43
2018-08-03T07:48:55.927Z,25.50
2018-08-03T07:51:36.796Z,25.57
2018-08-03T07:54:10.725Z,25.68
2018-08-03T07:56:42.891Z,25.86
2018-08-03T07:59:30.617Z,25.85
2018-08-03T08:02:02.950Z,25.95
2018-08-03T08:04:38.218Z,26.05
2018-08-03T08:07:07.414Z,26.02
2018-08-03T08:09:36.415Z,26.05
2018-08-03T08:12:18.515Z,26.15
2018-08-03T08:14:48.803Z,26.32
2018-08-03T08:17:38.278Z,26.35
2018-08-03T08:20:25.100Z,26.28
2018-08-03T08:23:18.268Z,26.29
2018-08-03T08:26:01.944Z,26.55
2018-08-03T08:28:30.902Z,26.55
2018-08-03T08:30:59.767Z,26.62
2018-08-03T08:33:28.677Z,26.68
2018-08-03T08:35:57.541Z,26.69
2018-08-03T08:38:26.458Z,26.82
2018-08-03T08:40:57.419Z,27.00
2018-08-03T08:43:39.491Z,27.03
2018-08-03T08:46:08.254Z,27.12
2018-08-03T08:48:37.150Z,27.24
2018-08-03T08:51:11.836Z,27.36
2018-08-03T08:53:40.849Z,27.33
2018-08-03T08:56:16.696Z,27.39
2018-08-03T08:58:51.753Z,27.26
2018-08-03T09:01:20.632Z,27.30
2018-08-03T09:04:02.368Z,27.56
2018-08-03T09:06:36.299Z,27.79
2018-08-03T09:09:11.605Z,28.07
2018-08-03T09:11:50.699Z,27.80
2018-08-03T09:14:20.588Z,27.72
2018-08-03T09:16:50.556Z,27.70
2018-08-03T09:19:36.172Z,27.80
2018-08-03T09:22:24.104Z,27.96
2018-08-03T09:24:54.044Z,28.08
2018-08-03T09:27:35.628Z,28.02
2018-08-03T09:30:24.984Z,28.21
2018-08-03T09:32:59.361Z,28.19
2018-08-03T09:35:38.892Z,28.32
2018-08-03T09:38:28.516Z,28.46
2018-08-03T09:40:57.407Z,28.30
2018-08-03T09:43:26.328Z,28.34
2018-08-03T09:45:55.412Z,28.53
2018-08-03T09:48:41.271Z,28.86
2018-08-03T09:51:11.900Z,28.66
2018-08-03T09:53:58.937Z,28.67
2018-08-03T09:56:35.531Z,29.08
2018-08-03T09:59:12.187Z,28.95
2018-08-03T10:01:46.938Z,28.97
2018-08-03T10:04:34.552Z,29.05
2018-08-03T10:07:08.457Z,29.14
2018-08-03T10:09:38.365Z,29.18
2018-08-03T10:12:07.249Z,29.45
2018-08-03T10:14:47.828Z,29.52
2018-08-03T10:17:33.088Z,29.53
2018-08-03T10:20:25.067Z,29.43
2018-08-03T10:22:54.022Z,29.39
2018-08-03T10:25:22.944Z,29.43
2018-08-03T10:28:01.948Z,29.33
2018-08-03T10:30:35.152Z,29.42
2018-08-03T10:33:06.679Z,29.71
2018-08-03T10:35:50.436Z,29.72
2018-08-03T10:38:21.368Z,29.76
2018-08-03T10:40:55.592Z,29.77
2018-08-03T10:43:26.560Z,30.01
2018-08-03T10:46:01.153Z,30.08
2018-08-03T10:48:42.478Z,30.40
2018-08-03T10:51:12.035Z,30.07
2018-08-03T10:53:41.976Z,29.96
2018-08-03T10:56:14.977Z,30.12
2018-08-03T10:58:48.901Z,30.40
2018-08-03T11:01:22.236Z,30.59
2018-08-03T11:03:51.732Z,30.52
2018-08-03T11:06:22.214Z,30.74
2018-08-03T11:08:52.726Z,30.96
2018-08-03T11:11:25.939Z,31.03
2018-08-03T11:13:55.348Z,31.14
2018-08-03T11:16:25.700Z,31.31
2018-08-03T11:18:58.682Z,31.31
2018-08-03T11:21:27.630Z,31.47
2018-08-03T11:24:09.817Z,31.45
2018-08-03T11:26:38.719Z,31.16
2018-08-03T11:29:14.873Z,31.12
2018-08-03T11:31:47.354Z,31.50
2018-08-03T11:34:20.628Z,31.47
2018-08-03T11:36:50.621Z,31.16
2018-08-03T11:39:19.505Z,31.31
2018-08-03T11:42:04.796Z,31.19
2018-08-03T11:44:33.681Z,31.67
2018-08-03T11:47:15.687Z,31.73
2018-08-03T11:49:44.596Z,31.54
2018-08-03T11:52:13.473Z,31.49
2018-08-03T11:54:42.337Z,31.34
2018-08-03T11:57:11.246Z,31.37
2018-08-03T11:59:43.853Z,31.32
2018-08-03T12:02:20.312Z,31.40
2018-08-03T12:04:49.297Z,31.55
2018-08-03T12:07:18.683Z,31.67
2018-08-03T12:09:48.013Z,31.65
2018-08-03T12:12:17.218Z,31.46
2018-08-03T12:14:47.256Z,31.97
2018-08-03T12:17:16.553Z,32.09
2018-08-03T12:19:46.652Z,32.08
2018-08-03T12:22:21.384Z,31.91
2018-08-03T12:24:50.508Z,32.01
2018-08-03T12:27:25.112Z,32.31
2018-08-03T12:29:54.472Z,32.16
2018-08-03T12:32:23.898Z,31.91
2018-08-03T12:34:57.479Z,32.05
2018-08-03T12:37:27.898Z,32.03
2018-08-03T12:39:57.141Z,32.06
2018-08-03T12:42:26.649Z,31.94
2018-08-03T12:44:56.248Z,31.83
2018-08-03T12:47:25.396Z,31.73
2018-08-03T12:49:58.648Z,31.86
2018-08-03T12:52:27.742Z,31.60
2018-08-03T12:54:57.628Z,31.46
2018-08-03T12:57:30.476Z,31.76
2018-08-03T13:00:15.592Z,31.99
2018-08-03T13:02:45.559Z,32.19
2018-08-03T13:05:16.552Z,32.30
2018-08-03T13:07:46.127Z,32.50
2018-08-03T13:10:22.341Z,32.52
2018-08-03T13:12:52.652Z,32.72
2018-08-03T13:15:22.961Z,32.75
2018-08-03T13:17:52.397Z,33.25
2018-08-03T13:20:23.791Z,32.99
2018-08-03T13:23:04.674Z,32.91
2018-08-03T13:25:44.052Z,32.82
2018-08-03T13:28:16.970Z,33.12
2018-08-03T13:30:49.147Z,32.96
2018-08-03T13:33:18.088Z,33.12
2018-08-03T13:35:46.969Z,32.85
2018-08-03T13:38:15.884Z,32.61
2018-08-03T13:40:45.942Z,33.11
2018-08-03T13:43:18.684Z,33.29
2018-08-03T13:45:54.411Z,33.55
2018-08-03T13:48:25.446Z,33.23
2018-08-03T13:50:54.450Z,33.44
2018-08-03T13:53:24.568Z,33.39
2018-08-03T13:55:53.452Z,33.13
2018-08-03T13:58:22.362Z,33.10
2018-08-03T14:01:02.250Z,33.30
2018-08-03T14:03:32.209Z,33.69
2018-08-03T14:06:02.212Z,33.93
2018-08-03T14:08:34.903Z,33.59
2018-08-03T14:11:07.787Z,33.45
2018-08-03T14:13:36.691Z,33.53
2018-08-03T14:16:05.597Z,33.61
2018-08-03T14:18:46.032Z,33.82
2018-08-03T14:21:17.018Z,33.43
2018-08-03T14:23:54.298Z,33.78
2018-08-03T14:26:27.638Z,33.83
2018-08-03T14:29:03.219Z,33.54
2018-08-03T14:31:32.338Z,33.38
2018-08-03T14:34:08.603Z,33.75
2018-08-03T14:36:43.184Z,33.55
2018-08-03T14:39:12.083Z,33.44
2018-08-03T14:41:41.064Z,33.30
2018-08-03T14:44:19.090Z,33.43
2018-08-03T14:46:51.642Z,33.38
2018-08-03T14:49:20.573Z,33.32
2018-08-03T14:51:54.988Z,33.11
2018-08-03T14:54:25.927Z,32.96
2018-08-03T14:56:55.939Z,32.83
2018-08-03T14:59:24.838Z,32.89
2018-08-03T15:01:53.852Z,32.97
2018-08-03T15:04:41.134Z,33.00
2018-08-03T15:07:13.267Z,33.22
2018-08-03T15:09:46.214Z,33.35
2018-08-03T15:12:16.112Z,33.15
2018-08-03T15:14:44.984Z,33.21
2018-08-03T15:17:20.556Z,33.42
2018-08-03T15:19:55.409Z,33.40
2018-08-03T15:22:26.619Z,33.18
2018-08-03T15:24:55.613Z,33.14
2018-08-03T15:27:24.566Z,33.07
2018-08-03T15:29:53.526Z,33.26
2018-08-03T15:32:22.889Z,33.16
2018-08-03T15:34:53.345Z,33.31
2018-08-03T15:37:23.874Z,33.15
2018-08-03T15:39:54.865Z,33.05
2018-08-03T15:42:23.838Z,33.12
2018-08-03T15:44:53.867Z,32.89
2018-08-03T15:47:34.957Z,33.15
2018-08-03T15:50:21.583Z,33.36
2018-08-03T15:52:50.613Z,33.33
2018-08-03T15:55:20.492Z,33.20
2018-08-03T15:57:50.443Z,33.24
2018-08-03T16:00:20.315Z,33.19
2018-08-03T16:02:49.220Z,32.89
2018-08-03T16:05:18.136Z,32.59
2018-08-03T16:07:50.884Z,32.79
2018-08-03T16:10:30.538Z,32.79
2018-08-03T16:13:01.560Z,32.81
2018-08-03T16:15:33.968Z,32.60
2018-08-03T16:18:03.372Z,32.74
2018-08-03T16:20:32.887Z,32.68
2018-08-03T16:23:03.033Z,32.60
2018-08-03T16:25:45.044Z,32.48
2018-08-03T16:28:18.856Z,32.81
2018-08-03T16:30:48.484Z,32.68
2018-08-03T16:33:17.848Z,32.81
2018-08-03T16:35:57.824Z,32.84
2018-08-03T16:38:28.187Z,32.90
2018-08-03T16:41:03.041Z,32.75
2018-08-03T16:43:49.364Z,32.71
2018-08-03T16:46:22.528Z,32.74
2018-08-03T16:48:52.933Z,32.64
2018-08-03T16:51:41.319Z,32.46
2018-08-03T16:54:14.647Z,32.48
2018-08-03T16:56:43.942Z,32.64
2018-08-03T16:59:12.908Z,32.66
2018-08-03T17:01:42.554Z,32.75
2018-08-03T17:04:12.867Z,32.63
2018-08-03T17:06:46.808Z,32.58
2018-08-03T17:09:17.839Z,32.62
2018-08-03T17:11:48.233Z,32.57
2018-08-03T17:14:21.117Z,32.47
2018-08-03T17:16:57.449Z,32.37
2018-08-03T17:19:44.719Z,32.36
2018-08-03T17:22:20.987Z,32.41
2018-08-03T17:24:55.546Z,32.39
2018-08-03T17:27:24.517Z,32.41
2018-08-03T17:29:53.890Z,32.39
2018-08-03T17:32:25.525Z,32.22
2018-08-03T17:35:11.878Z,32.18
2018-08-03T17:37:41.224Z,32.19
2018-08-03T17:40:15.309Z,32.25
2018-08-03T17:42:50.462Z,32.17
2018-08-03T17:45:33.181Z,32.18
2018-08-03T17:48:03.180Z,32.15
2018-08-03T17:50:36.184Z,32.04
2018-08-03T17:53:16.567Z,32.10
2018-08-03T17:55:46.750Z,32.02
2018-08-03T17:58:17.664Z,32.05
2018-08-03T18:00:47.584Z,31.98
2018-08-03T18:03:18.489Z,31.89
2018-08-03T18:05:55.133Z,31.84
2018-08-03T18:08:29.172Z,31.87
2018-08-03T18:10:58.534Z,31.86
2018-08-03T18:13:38.662Z,31.80
2018-08-03T18:16:09.719Z,31.65
2018-08-03T18:18:42.730Z,31.71
2018-08-03T18:21:24.528Z,31.69
2018-08-03T18:24:06.351Z,31.67
2018-08-03T18:26:38.617Z,31.57
2018-08-03T18:29:11.695Z,31.61
2018-08-03T18:31:44.930Z,31.50
2018-08-03T18:34:25.640Z,31.46
2018-08-03T18:36:56.788Z,31.53
2018-08-03T18:39:25.756Z,31.42
2018-08-03T18:41:59.760Z,31.35
2018-08-03T18:44:28.853Z,31.27
2018-08-03T18:46:58.492Z,31.21
2018-08-03T18:49:30.802Z,31.17
2018-08-03T18:52:04.097Z,31.11
2018-08-03T18:54:43.078Z,31.07
2018-08-03T18:57:21.553Z,31.04
2018-08-03T18:59:50.420Z,30.98
2018-08-03T19:02:19.320Z,30.89
2018-08-03T19:04:48.216Z,30.96
2018-08-03T19:07:18.387Z,30.88
2018-08-03T19:09:49.403Z,30.80
2018-08-03T19:12:24.424Z,30.67
2018-08-03T19:14:55.388Z,30.70
2018-08-03T19:17:24.371Z,30.64
2018-08-03T19:20:08.197Z,30.59
2018-08-03T19:22:49.659Z,30.56
2018-08-03T19:25:21.032Z,30.46
2018-08-03T19:27:50.534Z,30.42
2018-08-03T19:30:23.305Z,30.36
2018-08-03T19:32:53.504Z,30.30
2018-08-03T19:35:27.885Z,30.25
2018-08-03T19:37:56.857Z,30.18
2018-08-03T19:43:19.425Z,30.05
2018-08-03T19:45:49.372Z,29.98
2018-08-03T19:48:27.970Z,29.98
2018-08-03T19:50:56.936Z,29.95
2018-08-03T19:53:26.854Z,29.89
2018-08-03T19:55:55.715Z,29.89
2018-08-03T19:58:25.689Z,29.87
2018-08-03T20:01:13.165Z,29.82
2018-08-03T20:03:49.720Z,29.74
2018-08-03T20:06:18.676Z,29.76
2018-08-03T20:08:54.012Z,29.72
2018-08-03T20:11:22.989Z,29.70
2018-08-03T20:13:55.399Z,29.64
2018-08-03T20:16:38.883Z,29.64
2018-08-03T20:19:20.568Z,29.59
2018-08-03T20:21:49.449Z,29.57
2018-08-03T20:24:21.552Z,29.53
2018-08-03T20:26:57.752Z,29.44
2018-08-03T20:29:34.096Z,29.42
2018-08-03T20:32:04.000Z,29.37
2018-08-03T20:34:32.970Z,29.34
2018-08-03T20:37:05.844Z,29.31
2018-08-03T20:39:35.754Z,29.28
2018-08-03T20:42:04.874Z,29.22
2018-08-03T20:44:34.812Z,29.18
2018-08-03T20:47:08.569Z,29.15
2018-08-03T20:49:50.468Z,29.14
2018-08-03T20:52:31.576Z,29.07
2018-08-03T20:55:03.629Z,29.05
2018-08-03T20:57:36.022Z,29.00
2018-08-03T21:00:08.296Z,28.96
2018-08-03T21:02:39.314Z,28.91
2018-08-03T21:05:18.656Z,28.91
2018-08-03T21:07:47.670Z,28.91
2018-08-03T21:10:16.640Z,28.86
2018-08-03T21:12:45.731Z,28.80
2018-08-03T21:15:16.726Z,28.77
2018-08-03T21:17:47.668Z,28.80
2018-08-03T21:20:23.385Z,28.75
2018-08-03T21:22:52.377Z,28.70
2018-08-03T21:25:21.352Z,28.67
2018-08-03T21:27:51.259Z,28.65
2018-08-03T21:30:27.431Z,28.63
2018-08-03T21:33:01.823Z,28.58
2018-08-03T21:35:35.031Z,28.58
2018-08-03T21:38:03.930Z,28.51
2018-08-03T21:40:33.099Z,28.50
2018-08-03T21:43:06.305Z,28.43
2018-08-03T21:45:38.590Z,28.43
2018-08-03T21:48:15.223Z,28.37
2018-08-03T21:53:39.508Z,28.27
2018-08-03T21:56:19.720Z,28.28
2018-08-03T21:58:50.674Z,28.25
2018-08-03T22:01:25.505Z,28.16
2018-08-03T22:03:59.947Z,28.06
2018-08-03T22:06:30.873Z,28.10
2018-08-03T22:09:00.724Z,28.11
2018-08-03T22:11:30.701Z,28.07
2018-08-03T22:14:05.197Z,28.03
2018-08-03T22:16:36.164Z,28.02
2018-08-03T22:19:28.642Z,27.98
2018-08-03T22:24:52.789Z,27.90
2018-08-03T22:27:26.602Z,27.89
2018-08-03T22:30:00.779Z,27.88
2018-08-03T22:32:34.704Z,27.91
2018-08-03T22:38:16.035Z,27.81
2018-08-03T22:40:46.939Z,27.74
2018-08-03T22:43:17.949Z,27.79
2018-08-03T22:48:40.436Z,27.79
2018-08-03T22:51:09.332Z,27.74
2018-08-03T22:53:38.417Z,27.72
2018-08-03T22:56:07.389Z,27.69
2018-08-03T22:58:36.297Z,27.70
2018-08-03T23:01:05.196Z,27.65
2018-08-03T23:03:34.047Z,27.57
2018-08-03T23:06:09.183Z,27.56
2018-08-03T23:08:40.242Z,27.51
2018-08-03T23:11:20.667Z,27.60
2018-08-03T23:13:49.610Z,27.51
2018-08-03T23:16:39.106Z,27.48
2018-08-03T23:19:13.917Z,27.48
2018-08-03T23:21:46.126Z,27.52
2018-08-03T23:24:19.123Z,27.48
2018-08-03T23:27:04.848Z,27.50
2018-08-03T23:29:33.731Z,27.47
2018-08-03T23:32:02.590Z,27.47
2018-08-03T23:34:31.478Z,27.48
2018-08-03T23:37:05.907Z,27.46
2018-08-03T23:39:44.809Z,27.46
2018-08-03T23:42:13.702Z,27.40
2018-08-03T23:44:42.579Z,27.34
2018-08-03T23:50:13.554Z,27.32
2018-08-03T23:52:50.847Z,27.36
2018-08-03T23:55:19.746Z,27.40
2018-08-03T23:57:48.626Z,27.38
